WetterOnline ( https://www.wetteronline.de )

Wetter aktuell Rosenfors

Aktuelles Wetter: Kosta (231m)

6-stündlich | Neueste Meldungen
Ortszeit Temperatur Wetter
Fr, 04.12. 19:00 2.7° C bedeckt
Fr, 04.12. 13:00 1.4° C Nebel
Fr, 04.12. 7:00 0.4° C bedeckt
Fr, 04.12. 1:00 0.3° C bedeckt
Do, 03.12. 19:00 -0.3° C leichter Schneefall
Do, 03.12. 13:00 -0.1° C bedeckt
Do, 03.12. 7:00 -1.0° C bedeckt
Do, 03.12. 1:00 -0.8° C bedeckt
Ortszeit Temperatur Wetter
Sa, 05.12. 0:00 2.6° C bedeckt
Fr, 04.12. 23:00 2.7° C bedeckt
Fr, 04.12. 22:00 2.9° C bedeckt
Fr, 04.12. 21:00 2.8° C bedeckt
Fr, 04.12. 20:00 2.7° C bedeckt
Fr, 04.12. 19:00 2.7° C bedeckt
Ortszeit Relative Feuchte Sichtweite
Fr, 04.12. 19:00 100% 4.2 km
Fr, 04.12. 13:00 100% 0.6 km
Fr, 04.12. 7:00 99% 6 km
Fr, 04.12. 1:00 100% 5.0 km
Do, 03.12. 19:00 100% 1.5 km
Do, 03.12. 13:00 81% 12 km
Do, 03.12. 7:00 87% 8 km
Do, 03.12. 1:00 84% 14 km
Ortszeit Relative Feuchte Sichtweite
Sa, 05.12. 0:00 100% 3.1 km
Fr, 04.12. 23:00 100% 3.8 km
Fr, 04.12. 22:00 99% 5.0 km
Fr, 04.12. 21:00 99% 5.0 km
Fr, 04.12. 20:00 100% 4.7 km
Fr, 04.12. 19:00 100% 4.2 km
Ortszeit Niederschlagsmenge Niederschlagsart
Fr, 04.12. 19:00 0.8 l/m2 in 12 Std. Regenschauer
Fr, 04.12. 13:00 0.3 l/m2 in 6 Std. Schauer
Fr, 04.12. 7:00 2 l/m2 in 12 Std. Regenschauer
Fr, 04.12. 1:00 2 l/m2 in 6 Std. Schneeschauer
Do, 03.12. 19:00 1 l/m2 in 12 Std. Regenschauer
Do, 03.12. 13:00 0.0 l/m2 in 6 Std. -
Do, 03.12. 7:00 0.0 l/m2 in 12 Std. -
Do, 03.12. 1:00 0.0 l/m2 -
Ortszeit Niederschlagsmenge Niederschlagsart
Sa, 05.12. 0:00 0.0 l/m2 in 1 Std. -
Fr, 04.12. 23:00 0.0 l/m2 in 1 Std. -
Fr, 04.12. 22:00 0.0 l/m2 in 1 Std. -
Fr, 04.12. 21:00 0.0 l/m2 in 1 Std. -
Fr, 04.12. 20:00 0.0 l/m2 in 1 Std. -
Fr, 04.12. 19:00 0.0 l/m2 in 1 Std. Regenschauer
Ortszeit Stärke Spitze Richtung
km/h Bft. km/h Grad Sektor
Fr, 04.12. 19:00 7 2 14 120° SO
Fr, 04.12. 13:00 4 1 - 90° O
Fr, 04.12. 7:00 7 2 14 120° SO
Fr, 04.12. 1:00 11 2 22 150° SO
Do, 03.12. 19:00 11 2 - 140° SO
Do, 03.12. 13:00 11 2 - 140° SO
Do, 03.12. 7:00 7 2 - 110° O
Do, 03.12. 1:00 11 2 - 130° SO
Ortszeit Stärke Spitze Richtung
km/h Bft. km/h Grad Sektor
Sa, 05.12. 0:00 4 1 7 90° O
Fr, 04.12. 23:00 4 1 7 100° O
Fr, 04.12. 22:00 4 1 11 130° SO
Fr, 04.12. 21:00 7 2 14 120° SO
Fr, 04.12. 20:00 7 2 14 120° SO
Fr, 04.12. 19:00 7 2 14 120° SO
Ortszeit Untergrenze Bedeckung Gattung
total tief tief mittel hoch
Fr, 04.12. 19:00 150 m 8/8 8/8 - - -
Fr, 04.12. 13:00 60 m 8/8 8/8 - - -
Fr, 04.12. 7:00 240 m 8/8 8/8 - - -
Fr, 04.12. 1:00 150 m 8/8 8/8 - - -
Do, 03.12. 19:00 180 m 8/8 8/8 - - -
Do, 03.12. 13:00 540 m 8/8 8/8 - - -
Do, 03.12. 7:00 570 m 8/8 8/8 - - -
Do, 03.12. 1:00 420 m 8/8 8/8 - - -
Ortszeit Bedeckungsgrad in Achtel und Wolkenuntergrenze
Sa, 05.12. 0:00 8(750m)
Fr, 04.12. 23:00 1(510m) 8(630m)
Fr, 04.12. 22:00 1(180m) 8(570m)
Fr, 04.12. 21:00 8(660m)
Fr, 04.12. 20:00 2(180m) 3(450m) 8(780m)
Fr, 04.12. 19:00 7(150m) 8(360m)
Ortszeit Luftdruck NN (hPa) Tendenz (hPa in 3 Std.)
Fr, 04.12. 19:00 1001 + 1,0
Fr, 04.12. 13:00 1000 - 1,4
Fr, 04.12. 7:00 1001 - 0,1
Fr, 04.12. 1:00 1002 - 0,9
Do, 03.12. 19:00 1004 - 1,8
Do, 03.12. 13:00 1009 - 2,3
Do, 03.12. 7:00 1011 - 2,0
Do, 03.12. 1:00 1016 - 1,7
Ortszeit Luftdruck NN (hPa) Tendenz (hPa in 3 Std.)
Sa, 05.12. 0:00 1002 + 1,0
Fr, 04.12. 23:00 1002 + 1,2
Fr, 04.12. 22:00 1002 + 1,3
Fr, 04.12. 21:00 1001 + 0,9
Fr, 04.12. 20:00 1001 + 0,7
Fr, 04.12. 19:00 1001 + 1,0
Ortszeit Schneehöhe (cm)
Fr, 04.12. 19:00 -
Fr, 04.12. 13:00 -
Fr, 04.12. 7:00 -
Fr, 04.12. 1:00 -
Do, 03.12. 19:00 -
Do, 03.12. 13:00 -
Do, 03.12. 7:00 -
Do, 03.12. 1:00 -
Ortszeit Schneehöhe (cm)
Sa, 05.12. 0:00 -
Fr, 04.12. 23:00 -
Fr, 04.12. 22:00 -
Fr, 04.12. 21:00 -
Fr, 04.12. 20:00 -
Fr, 04.12. 19:00 -
Link zu dieser Seite / Seite empfehlen

Das Wetter in ...